sensor_id;sensor_type;location;lat;lon;timestamp;P1;durP1;ratioP1;P2;durP2;ratioP2
13347;SDS011;6743;49.934;9.138;2022-10-16T00:01:24;0.60;;;0.60;;
13347;SDS011;6743;49.934;9.138;2022-10-16T00:03:57;0.62;;;0.62;;
13347;SDS011;6743;49.934;9.138;2022-10-16T00:06:33;0.50;;;0.50;;
13347;SDS011;6743;49.934;9.138;2022-10-16T00:08:59;0.82;;;0.80;;
13347;SDS011;6743;49.934;9.138;2022-10-16T00:11:28;0.50;;;0.50;;
13347;SDS011;6743;49.934;9.138;2022-10-16T00:13:59;0.50;;;0.50;;
13347;SDS011;6743;49.934;9.138;2022-10-16T00:16:26;0.60;;;0.60;;
13347;SDS011;6743;49.934;9.138;2022-10-16T00:18:53;0.95;;;0.82;;
13347;SDS011;6743;49.934;9.138;2022-10-16T00:21:20;0.90;;;0.80;;
13347;SDS011;6743;49.934;9.138;2022-10-16T00:23:59;0.93;;;0.85;;
13347;SDS011;6743;49.934;9.138;2022-10-16T00:26:36;0.70;;;0.70;;
13347;SDS011;6743;49.934;9.138;2022-10-16T00:29:07;0.65;;;0.65;;
13347;SDS011;6743;49.934;9.138;2022-10-16T00:31:33;0.40;;;0.40;;
13347;SDS011;6743;49.934;9.138;2022-10-16T00:33:59;0.57;;;0.57;;
13347;SDS011;6743;49.934;9.138;2022-10-16T00:36:46;0.50;;;0.50;;
13347;SDS011;6743;49.934;9.138;2022-10-16T00:39:22;0.60;;;0.60;;
13347;SDS011;6743;49.934;9.138;2022-10-16T00:41:55;0.68;;;0.68;;
13347;SDS011;6743;49.934;9.138;2022-10-16T00:44:46;0.73;;;0.73;;
13347;SDS011;6743;49.934;9.138;2022-10-16T00:47:17;0.60;;;0.60;;
13347;SDS011;6743;49.934;9.138;2022-10-16T00:49:47;0.50;;;0.50;;
13347;SDS011;6743;49.934;9.138;2022-10-16T00:52:16;0.45;;;0.45;;
13347;SDS011;6743;49.934;9.138;2022-10-16T00:54:43;0.50;;;0.50;;
13347;SDS011;6743;49.934;9.138;2022-10-16T00:57:12;0.57;;;0.57;;
13347;SDS011;6743;49.934;9.138;2022-10-16T00:59:39;0.70;;;0.70;;
13347;SDS011;6743;49.934;9.138;2022-10-16T01:02:20;0.55;;;0.52;;
13347;SDS011;6743;49.934;9.138;2022-10-16T01:04:47;0.55;;;0.55;;
13347;SDS011;6743;49.934;9.138;2022-10-16T01:07:18;0.60;;;0.60;;
13347;SDS011;6743;49.934;9.138;2022-10-16T01:09:55;0.47;;;0.47;;
13347;SDS011;6743;49.934;9.138;2022-10-16T01:12:32;0.40;;;0.40;;
13347;SDS011;6743;49.934;9.138;2022-10-16T01:15:07;0.28;;;0.28;;
13347;SDS011;6743;49.934;9.138;2022-10-16T01:17:38;0.60;;;0.52;;
13347;SDS011;6743;49.934;9.138;2022-10-16T01:20:10;0.40;;;0.40;;
13347;SDS011;6743;49.934;9.138;2022-10-16T01:22:48;0.40;;;0.40;;
13347;SDS011;6743;49.934;9.138;2022-10-16T01:25:30;0.40;;;0.40;;
13347;SDS011;6743;49.934;9.138;2022-10-16T01:28:18;0.30;;;0.30;;
13347;SDS011;6743;49.934;9.138;2022-10-16T01:30:50;0.40;;;0.40;;
13347;SDS011;6743;49.934;9.138;2022-10-16T01:33:21;0.50;;;0.50;;
13347;SDS011;6743;49.934;9.138;2022-10-16T01:35:51;0.20;;;0.20;;
13347;SDS011;6743;49.934;9.138;2022-10-16T01:38:21;0.30;;;0.30;;
13347;SDS011;6743;49.934;9.138;2022-10-16T01:40:55;0.30;;;0.30;;
13347;SDS011;6743;49.934;9.138;2022-10-16T01:43:28;0.35;;;0.35;;
13347;SDS011;6743;49.934;9.138;2022-10-16T01:45:59;0.40;;;0.40;;
13347;SDS011;6743;49.934;9.138;2022-10-16T01:48:26;0.30;;;0.30;;
13347;SDS011;6743;49.934;9.138;2022-10-16T01:50:55;0.37;;;0.37;;
13347;SDS011;6743;49.934;9.138;2022-10-16T01:53:26;0.47;;;0.32;;
13347;SDS011;6743;49.934;9.138;2022-10-16T01:55:53;0.35;;;0.35;;
13347;SDS011;6743;49.934;9.138;2022-10-16T01:58:21;0.30;;;0.30;;
13347;SDS011;6743;49.934;9.138;2022-10-16T02:00:49;0.52;;;0.52;;
13347;SDS011;6743;49.934;9.138;2022-10-16T02:03:18;0.50;;;0.50;;
13347;SDS011;6743;49.934;9.138;2022-10-16T02:05:45;0.30;;;0.30;;
13347;SDS011;6743;49.934;9.138;2022-10-16T02:08:14;0.50;;;0.50;;
13347;SDS011;6743;49.934;9.138;2022-10-16T02:10:40;0.62;;;0.47;;
13347;SDS011;6743;49.934;9.138;2022-10-16T02:13:08;0.40;;;0.40;;
13347;SDS011;6743;49.934;9.138;2022-10-16T02:15:37;0.40;;;0.40;;
13347;SDS011;6743;49.934;9.138;2022-10-16T02:18:04;0.22;;;0.22;;
13347;SDS011;6743;49.934;9.138;2022-10-16T02:20:32;0.60;;;0.60;;
13347;SDS011;6743;49.934;9.138;2022-10-16T02:23:02;0.22;;;0.22;;
13347;SDS011;6743;49.934;9.138;2022-10-16T02:25:29;0.30;;;0.30;;
13347;SDS011;6743;49.934;9.138;2022-10-16T02:27:57;0.40;;;0.40;;
13347;SDS011;6743;49.934;9.138;2022-10-16T02:30:29;0.35;;;0.35;;
13347;SDS011;6743;49.934;9.138;2022-10-16T02:32:58;0.28;;;0.28;;
13347;SDS011;6743;49.934;9.138;2022-10-16T02:35:28;0.30;;;0.30;;
13347;SDS011;6743;49.934;9.138;2022-10-16T02:37:57;0.30;;;0.30;;
13347;SDS011;6743;49.934;9.138;2022-10-16T02:40:24;0.45;;;0.45;;
13347;SDS011;6743;49.934;9.138;2022-10-16T02:42:51;0.32;;;0.32;;
13347;SDS011;6743;49.934;9.138;2022-10-16T02:45:19;0.20;;;0.20;;
13347;SDS011;6743;49.934;9.138;2022-10-16T02:47:46;0.45;;;0.45;;
13347;SDS011;6743;49.934;9.138;2022-10-16T02:50:12;0.40;;;0.40;;
13347;SDS011;6743;49.934;9.138;2022-10-16T02:52:39;0.40;;;0.40;;
13347;SDS011;6743;49.934;9.138;2022-10-16T02:55:05;0.40;;;0.40;;
13347;SDS011;6743;49.934;9.138;2022-10-16T02:57:31;0.30;;;0.30;;
13347;SDS011;6743;49.934;9.138;2022-10-16T02:59:57;0.40;;;0.40;;
13347;SDS011;6743;49.934;9.138;2022-10-16T03:02:23;0.47;;;0.47;;
13347;SDS011;6743;49.934;9.138;2022-10-16T03:04:49;0.40;;;0.40;;
13347;SDS011;6743;49.934;9.138;2022-10-16T03:07:15;0.35;;;0.35;;
13347;SDS011;6743;49.934;9.138;2022-10-16T03:09:42;0.57;;;0.40;;
13347;SDS011;6743;49.934;9.138;2022-10-16T03:12:08;0.40;;;0.40;;
13347;SDS011;6743;49.934;9.138;2022-10-16T03:14:34;0.40;;;0.40;;
13347;SDS011;6743;49.934;9.138;2022-10-16T03:17:00;0.28;;;0.28;;
13347;SDS011;6743;49.934;9.138;2022-10-16T03:19:26;0.50;;;0.50;;
13347;SDS011;6743;49.934;9.138;2022-10-16T03:21:52;0.30;;;0.30;;
13347;SDS011;6743;49.934;9.138;2022-10-16T03:24:17;0.70;;;0.70;;
13347;SDS011;6743;49.934;9.138;2022-10-16T03:26:44;0.30;;;0.30;;
13347;SDS011;6743;49.934;9.138;2022-10-16T03:29:10;0.45;;;0.45;;
13347;SDS011;6743;49.934;9.138;2022-10-16T03:31:36;0.22;;;0.22;;
13347;SDS011;6743;49.934;9.138;2022-10-16T03:34:02;0.40;;;0.40;;
13347;SDS011;6743;49.934;9.138;2022-10-16T03:36:28;0.55;;;0.55;;
13347;SDS011;6743;49.934;9.138;2022-10-16T03:38:54;0.60;;;0.60;;
13347;SDS011;6743;49.934;9.138;2022-10-16T03:41:20;0.43;;;0.43;;
13347;SDS011;6743;49.934;9.138;2022-10-16T03:43:47;0.50;;;0.50;;
13347;SDS011;6743;49.934;9.138;2022-10-16T03:46:13;0.52;;;0.52;;
13347;SDS011;6743;49.934;9.138;2022-10-16T03:48:38;0.70;;;0.68;;
13347;SDS011;6743;49.934;9.138;2022-10-16T03:51:05;0.30;;;0.30;;
13347;SDS011;6743;49.934;9.138;2022-10-16T03:53:31;0.40;;;0.40;;
13347;SDS011;6743;49.934;9.138;2022-10-16T03:55:57;0.45;;;0.45;;
13347;SDS011;6743;49.934;9.138;2022-10-16T03:58:23;0.50;;;0.50;;
13347;SDS011;6743;49.934;9.138;2022-10-16T04:00:50;0.57;;;0.57;;
13347;SDS011;6743;49.934;9.138;2022-10-16T04:03:16;0.65;;;0.65;;
13347;SDS011;6743;49.934;9.138;2022-10-16T04:05:43;0.40;;;0.40;;
13347;SDS011;6743;49.934;9.138;2022-10-16T04:08:09;0.50;;;0.50;;
13347;SDS011;6743;49.934;9.138;2022-10-16T04:10:35;0.37;;;0.37;;
13347;SDS011;6743;49.934;9.138;2022-10-16T04:13:01;0.43;;;0.43;;
13347;SDS011;6743;49.934;9.138;2022-10-16T04:15:28;0.40;;;0.40;;
13347;SDS011;6743;49.934;9.138;2022-10-16T04:17:54;0.52;;;0.52;;
13347;SDS011;6743;49.934;9.138;2022-10-16T04:20:20;0.60;;;0.60;;
13347;SDS011;6743;49.934;9.138;2022-10-16T04:22:46;0.55;;;0.55;;
13347;SDS011;6743;49.934;9.138;2022-10-16T04:25:12;0.32;;;0.32;;
13347;SDS011;6743;49.934;9.138;2022-10-16T04:27:38;0.60;;;0.60;;
13347;SDS011;6743;49.934;9.138;2022-10-16T04:30:05;0.68;;;0.55;;
13347;SDS011;6743;49.934;9.138;2022-10-16T04:32:31;0.40;;;0.40;;
13347;SDS011;6743;49.934;9.138;2022-10-16T04:34:58;0.82;;;0.82;;
13347;SDS011;6743;49.934;9.138;2022-10-16T04:37:24;0.57;;;0.57;;
13347;SDS011;6743;49.934;9.138;2022-10-16T04:39:51;0.50;;;0.50;;
13347;SDS011;6743;49.934;9.138;2022-10-16T04:42:17;0.35;;;0.35;;
13347;SDS011;6743;49.934;9.138;2022-10-16T04:44:43;0.60;;;0.60;;
13347;SDS011;6743;49.934;9.138;2022-10-16T04:47:09;0.73;;;0.73;;
13347;SDS011;6743;49.934;9.138;2022-10-16T04:49:35;0.60;;;0.60;;
13347;SDS011;6743;49.934;9.138;2022-10-16T04:52:01;0.52;;;0.52;;
13347;SDS011;6743;49.934;9.138;2022-10-16T04:54:28;1.27;;;0.60;;
13347;SDS011;6743;49.934;9.138;2022-10-16T04:56:54;0.50;;;0.50;;
13347;SDS011;6743;49.934;9.138;2022-10-16T04:59:20;0.60;;;0.60;;
13347;SDS011;6743;49.934;9.138;2022-10-16T05:01:47;0.60;;;0.60;;
13347;SDS011;6743;49.934;9.138;2022-10-16T05:04:13;0.52;;;0.52;;
13347;SDS011;6743;49.934;9.138;2022-10-16T05:06:40;0.73;;;0.73;;
13347;SDS011;6743;49.934;9.138;2022-10-16T05:09:07;0.37;;;0.37;;
13347;SDS011;6743;49.934;9.138;2022-10-16T05:11:34;0.68;;;0.68;;
13347;SDS011;6743;49.934;9.138;2022-10-16T05:14:00;0.60;;;0.60;;
13347;SDS011;6743;49.934;9.138;2022-10-16T05:16:26;2.15;;;0.60;;
13347;SDS011;6743;49.934;9.138;2022-10-16T05:18:52;0.60;;;0.60;;
13347;SDS011;6743;49.934;9.138;2022-10-16T05:21:19;0.68;;;0.68;;
13347;SDS011;6743;49.934;9.138;2022-10-16T05:23:45;0.37;;;0.37;;
13347;SDS011;6743;49.934;9.138;2022-10-16T05:26:12;0.62;;;0.62;;
13347;SDS011;6743;49.934;9.138;2022-10-16T05:28:38;0.70;;;0.70;;
13347;SDS011;6743;49.934;9.138;2022-10-16T05:31:04;0.50;;;0.50;;
13347;SDS011;6743;49.934;9.138;2022-10-16T05:33:31;0.50;;;0.40;;
13347;SDS011;6743;49.934;9.138;2022-10-16T05:35:57;0.50;;;0.50;;
13347;SDS011;6743;49.934;9.138;2022-10-16T05:38:26;0.50;;;0.50;;
13347;SDS011;6743;49.934;9.138;2022-10-16T05:40:52;0.50;;;0.50;;
13347;SDS011;6743;49.934;9.138;2022-10-16T05:43:19;0.40;;;0.40;;
13347;SDS011;6743;49.934;9.138;2022-10-16T05:45:52;0.70;;;0.70;;
13347;SDS011;6743;49.934;9.138;2022-10-16T05:48:19;0.40;;;0.40;;
13347;SDS011;6743;49.934;9.138;2022-10-16T05:50:45;0.52;;;0.52;;
13347;SDS011;6743;49.934;9.138;2022-10-16T05:53:11;0.40;;;0.40;;
13347;SDS011;6743;49.934;9.138;2022-10-16T05:55:37;0.57;;;0.57;;
13347;SDS011;6743;49.934;9.138;2022-10-16T05:58:03;0.55;;;0.55;;
13347;SDS011;6743;49.934;9.138;2022-10-16T06:00:29;0.60;;;0.60;;
13347;SDS011;6743;49.934;9.138;2022-10-16T06:02:55;0.50;;;0.50;;
13347;SDS011;6743;49.934;9.138;2022-10-16T06:05:21;1.52;;;1.10;;
13347;SDS011;6743;49.934;9.138;2022-10-16T06:07:47;1.23;;;1.12;;
13347;SDS011;6743;49.934;9.138;2022-10-16T06:10:13;0.55;;;0.55;;
13347;SDS011;6743;49.934;9.138;2022-10-16T06:12:39;0.80;;;0.80;;
13347;SDS011;6743;49.934;9.138;2022-10-16T06:15:05;0.60;;;0.60;;
13347;SDS011;6743;49.934;9.138;2022-10-16T06:17:32;0.57;;;0.57;;
13347;SDS011;6743;49.934;9.138;2022-10-16T06:19:58;0.75;;;0.75;;
13347;SDS011;6743;49.934;9.138;2022-10-16T06:22:24;0.60;;;0.60;;
13347;SDS011;6743;49.934;9.138;2022-10-16T06:24:50;0.65;;;0.65;;
13347;SDS011;6743;49.934;9.138;2022-10-16T06:27:16;0.60;;;0.60;;
13347;SDS011;6743;49.934;9.138;2022-10-16T06:29:42;0.90;;;0.90;;
13347;SDS011;6743;49.934;9.138;2022-10-16T06:32:09;0.40;;;0.40;;
13347;SDS011;6743;49.934;9.138;2022-10-16T06:34:36;0.65;;;0.65;;
13347;SDS011;6743;49.934;9.138;2022-10-16T06:37:02;0.82;;;0.80;;
13347;SDS011;6743;49.934;9.138;2022-10-16T06:39:28;1.05;;;1.02;;
13347;SDS011;6743;49.934;9.138;2022-10-16T06:41:54;0.65;;;0.65;;
13347;SDS011;6743;49.934;9.138;2022-10-16T06:44:20;0.55;;;0.55;;
13347;SDS011;6743;49.934;9.138;2022-10-16T06:46:46;0.77;;;0.77;;
13347;SDS011;6743;49.934;9.138;2022-10-16T06:49:12;0.80;;;0.80;;
13347;SDS011;6743;49.934;9.138;2022-10-16T06:51:39;0.82;;;0.82;;
13347;SDS011;6743;49.934;9.138;2022-10-16T06:54:06;0.75;;;0.75;;
13347;SDS011;6743;49.934;9.138;2022-10-16T06:56:32;0.77;;;0.77;;
13347;SDS011;6743;49.934;9.138;2022-10-16T06:58:59;0.93;;;0.93;;
13347;SDS011;6743;49.934;9.138;2022-10-16T07:01:25;0.90;;;0.90;;
13347;SDS011;6743;49.934;9.138;2022-10-16T07:03:52;0.88;;;0.88;;
13347;SDS011;6743;49.934;9.138;2022-10-16T07:06:18;0.70;;;0.70;;
13347;SDS011;6743;49.934;9.138;2022-10-16T07:08:48;0.75;;;0.75;;
13347;SDS011;6743;49.934;9.138;2022-10-16T07:11:14;0.68;;;0.68;;
13347;SDS011;6743;49.934;9.138;2022-10-16T07:13:42;0.70;;;0.70;;
13347;SDS011;6743;49.934;9.138;2022-10-16T07:16:09;0.75;;;0.75;;
13347;SDS011;6743;49.934;9.138;2022-10-16T07:18:36;0.50;;;0.50;;
13347;SDS011;6743;49.934;9.138;2022-10-16T07:21:04;0.80;;;0.80;;
13347;SDS011;6743;49.934;9.138;2022-10-16T07:23:31;0.80;;;0.80;;
13347;SDS011;6743;49.934;9.138;2022-10-16T07:25:58;0.80;;;0.80;;
13347;SDS011;6743;49.934;9.138;2022-10-16T07:28:24;0.93;;;0.77;;
13347;SDS011;6743;49.934;9.138;2022-10-16T07:30:50;0.70;;;0.70;;
13347;SDS011;6743;49.934;9.138;2022-10-16T07:33:16;1.77;;;1.33;;
13347;SDS011;6743;49.934;9.138;2022-10-16T07:35:47;0.98;;;0.98;;
13347;SDS011;6743;49.934;9.138;2022-10-16T07:38:14;0.90;;;0.90;;
13347;SDS011;6743;49.934;9.138;2022-10-16T07:40:39;1.20;;;1.20;;
13347;SDS011;6743;49.934;9.138;2022-10-16T07:43:06;1.20;;;1.10;;
13347;SDS011;6743;49.934;9.138;2022-10-16T07:45:32;1.27;;;1.17;;
13347;SDS011;6743;49.934;9.138;2022-10-16T07:47:58;1.27;;;1.10;;
13347;SDS011;6743;49.934;9.138;2022-10-16T07:50:24;1.08;;;1.02;;
13347;SDS011;6743;49.934;9.138;2022-10-16T07:52:50;1.33;;;1.25;;
13347;SDS011;6743;49.934;9.138;2022-10-16T07:55:17;1.60;;;1.50;;
13347;SDS011;6743;49.934;9.138;2022-10-16T07:57:43;1.48;;;1.37;;
13347;SDS011;6743;49.934;9.138;2022-10-16T08:00:10;1.90;;;1.80;;
13347;SDS011;6743;49.934;9.138;2022-10-16T08:02:38;1.35;;;1.25;;
13347;SDS011;6743;49.934;9.138;2022-10-16T08:05:05;1.35;;;1.25;;
13347;SDS011;6743;49.934;9.138;2022-10-16T08:07:31;1.45;;;1.30;;
13347;SDS011;6743;49.934;9.138;2022-10-16T08:09:57;1.17;;;1.05;;
13347;SDS011;6743;49.934;9.138;2022-10-16T08:12:24;0.82;;;0.82;;
13347;SDS011;6743;49.934;9.138;2022-10-16T08:14:50;0.68;;;0.68;;
13347;SDS011;6743;49.934;9.138;2022-10-16T08:17:17;1.80;;;1.70;;
13347;SDS011;6743;49.934;9.138;2022-10-16T08:19:44;1.25;;;1.25;;
13347;SDS011;6743;49.934;9.138;2022-10-16T08:22:10;1.20;;;1.10;;
13347;SDS011;6743;49.934;9.138;2022-10-16T08:24:36;1.12;;;1.10;;
13347;SDS011;6743;49.934;9.138;2022-10-16T08:27:02;1.85;;;1.60;;
13347;SDS011;6743;49.934;9.138;2022-10-16T08:29:29;1.62;;;1.52;;
13347;SDS011;6743;49.934;9.138;2022-10-16T08:31:55;1.40;;;1.30;;
13347;SDS011;6743;49.934;9.138;2022-10-16T08:34:21;1.48;;;1.25;;
13347;SDS011;6743;49.934;9.138;2022-10-16T08:36:47;1.50;;;1.40;;
13347;SDS011;6743;49.934;9.138;2022-10-16T08:39:13;1.75;;;1.15;;
13347;SDS011;6743;49.934;9.138;2022-10-16T08:44:48;1.50;;;1.30;;
13347;SDS011;6743;49.934;9.138;2022-10-16T08:47:41;1.00;;;1.00;;
13347;SDS011;6743;49.934;9.138;2022-10-16T08:50:17;1.73;;;1.62;;
13347;SDS011;6743;49.934;9.138;2022-10-16T08:52:47;0.80;;;0.80;;
13347;SDS011;6743;49.934;9.138;2022-10-16T08:55:17;1.23;;;1.10;;
13347;SDS011;6743;49.934;9.138;2022-10-16T08:57:53;1.05;;;1.05;;
13347;SDS011;6743;49.934;9.138;2022-10-16T09:00:20;2.08;;;1.27;;
13347;SDS011;6743;49.934;9.138;2022-10-16T09:02:49;0.98;;;0.98;;
13347;SDS011;6743;49.934;9.138;2022-10-16T09:05:23;1.10;;;1.08;;
13347;SDS011;6743;49.934;9.138;2022-10-16T09:08:01;0.95;;;0.95;;
13347;SDS011;6743;49.934;9.138;2022-10-16T09:10:35;1.65;;;1.50;;
13347;SDS011;6743;49.934;9.138;2022-10-16T09:13:11;1.20;;;1.10;;
13347;SDS011;6743;49.934;9.138;2022-10-16T09:15:46;1.30;;;1.20;;
13347;SDS011;6743;49.934;9.138;2022-10-16T09:18:19;1.20;;;1.10;;
13347;SDS011;6743;49.934;9.138;2022-10-16T09:20:51;1.35;;;1.23;;
13347;SDS011;6743;49.934;9.138;2022-10-16T09:23:24;1.20;;;1.10;;
13347;SDS011;6743;49.934;9.138;2022-10-16T09:25:52;1.10;;;1.00;;
13347;SDS011;6743;49.934;9.138;2022-10-16T09:28:19;1.45;;;1.35;;
13347;SDS011;6743;49.934;9.138;2022-10-16T09:30:45;1.35;;;1.25;;
13347;SDS011;6743;49.934;9.138;2022-10-16T09:33:13;1.27;;;1.17;;
13347;SDS011;6743;49.934;9.138;2022-10-16T09:35:40;1.70;;;1.60;;
13347;SDS011;6743;49.934;9.138;2022-10-16T09:38:09;1.62;;;1.52;;
13347;SDS011;6743;49.934;9.138;2022-10-16T09:40:47;1.33;;;1.30;;
13347;SDS011;6743;49.934;9.138;2022-10-16T09:43:17;1.50;;;1.40;;
13347;SDS011;6743;49.934;9.138;2022-10-16T09:45:54;1.00;;;0.90;;
13347;SDS011;6743;49.934;9.138;2022-10-16T09:48:22;1.42;;;1.33;;
13347;SDS011;6743;49.934;9.138;2022-10-16T09:50:57;1.20;;;1.20;;
13347;SDS011;6743;49.934;9.138;2022-10-16T09:53:25;0.80;;;0.80;;
13347;SDS011;6743;49.934;9.138;2022-10-16T09:55:53;1.27;;;1.17;;
13347;SDS011;6743;49.934;9.138;2022-10-16T09:58:21;1.12;;;1.12;;
13347;SDS011;6743;49.934;9.138;2022-10-16T10:00:50;0.80;;;0.80;;
13347;SDS011;6743;49.934;9.138;2022-10-16T10:03:28;0.88;;;0.80;;
13347;SDS011;6743;49.934;9.138;2022-10-16T10:05:59;0.88;;;0.88;;
13347;SDS011;6743;49.934;9.138;2022-10-16T10:08:27;0.68;;;0.68;;
13347;SDS011;6743;49.934;9.138;2022-10-16T10:10:53;1.52;;;0.93;;
13347;SDS011;6743;49.934;9.138;2022-10-16T10:13:20;1.17;;;1.08;;
13347;SDS011;6743;49.934;9.138;2022-10-16T10:15:48;1.45;;;1.35;;
13347;SDS011;6743;49.934;9.138;2022-10-16T10:18:15;1.15;;;1.15;;
13347;SDS011;6743;49.934;9.138;2022-10-16T10:20:43;1.20;;;1.10;;
13347;SDS011;6743;49.934;9.138;2022-10-16T10:23:19;1.45;;;1.27;;
13347;SDS011;6743;49.934;9.138;2022-10-16T10:25:50;1.00;;;1.00;;
13347;SDS011;6743;49.934;9.138;2022-10-16T10:31:14;1.12;;;1.10;;
13347;SDS011;6743;49.934;9.138;2022-10-16T10:33:47;1.23;;;1.10;;
13347;SDS011;6743;49.934;9.138;2022-10-16T10:36:23;1.10;;;1.10;;
13347;SDS011;6743;49.934;9.138;2022-10-16T10:38:54;1.02;;;1.02;;
13347;SDS011;6743;49.934;9.138;2022-10-16T10:41:31;0.70;;;0.70;;
13347;SDS011;6743;49.934;9.138;2022-10-16T10:44:23;0.70;;;0.70;;
13347;SDS011;6743;49.934;9.138;2022-10-16T10:47:01;0.60;;;0.60;;
13347;SDS011;6743;49.934;9.138;2022-10-16T10:49:39;0.90;;;0.90;;
13347;SDS011;6743;49.934;9.138;2022-10-16T10:52:16;0.65;;;0.65;;
13347;SDS011;6743;49.934;9.138;2022-10-16T10:55:00;0.85;;;0.85;;
13347;SDS011;6743;49.934;9.138;2022-10-16T10:57:36;1.50;;;1.40;;
13347;SDS011;6743;49.934;9.138;2022-10-16T11:00:15;0.95;;;0.80;;
13347;SDS011;6743;49.934;9.138;2022-10-16T11:02:48;0.75;;;0.75;;
13347;SDS011;6743;49.934;9.138;2022-10-16T11:05:23;1.45;;;1.02;;
13347;SDS011;6743;49.934;9.138;2022-10-16T11:07:59;0.77;;;0.77;;
13347;SDS011;6743;49.934;9.138;2022-10-16T11:10:28;1.85;;;0.68;;
13347;SDS011;6743;49.934;9.138;2022-10-16T11:13:16;0.93;;;0.90;;
13347;SDS011;6743;49.934;9.138;2022-10-16T11:15:49;0.90;;;0.85;;
13347;SDS011;6743;49.934;9.138;2022-10-16T11:18:21;0.77;;;0.77;;
13347;SDS011;6743;49.934;9.138;2022-10-16T11:20:51;0.70;;;0.70;;
13347;SDS011;6743;49.934;9.138;2022-10-16T11:23:23;0.95;;;0.95;;
13347;SDS011;6743;49.934;9.138;2022-10-16T11:25:52;1.00;;;1.00;;
13347;SDS011;6743;49.934;9.138;2022-10-16T11:28:25;1.17;;;1.17;;
13347;SDS011;6743;49.934;9.138;2022-10-16T11:30:57;0.90;;;0.90;;
13347;SDS011;6743;49.934;9.138;2022-10-16T11:33:29;0.70;;;0.70;;
13347;SDS011;6743;49.934;9.138;2022-10-16T11:36:03;0.90;;;0.90;;
13347;SDS011;6743;49.934;9.138;2022-10-16T11:38:34;0.70;;;0.70;;
13347;SDS011;6743;49.934;9.138;2022-10-16T11:41:10;1.12;;;0.85;;
13347;SDS011;6743;49.934;9.138;2022-10-16T11:43:45;0.60;;;0.60;;
13347;SDS011;6743;49.934;9.138;2022-10-16T11:46:19;0.70;;;0.70;;
13347;SDS011;6743;49.934;9.138;2022-10-16T11:48:49;0.50;;;0.50;;
13347;SDS011;6743;49.934;9.138;2022-10-16T11:51:22;0.50;;;0.50;;
13347;SDS011;6743;49.934;9.138;2022-10-16T11:53:56;0.82;;;0.75;;
13347;SDS011;6743;49.934;9.138;2022-10-16T11:56:28;0.60;;;0.60;;
13347;SDS011;6743;49.934;9.138;2022-10-16T11:58:58;0.82;;;0.82;;
13347;SDS011;6743;49.934;9.138;2022-10-16T12:01:30;0.68;;;0.68;;
13347;SDS011;6743;49.934;9.138;2022-10-16T12:04:14;0.80;;;0.80;;
13347;SDS011;6743;49.934;9.138;2022-10-16T12:06:46;0.93;;;0.93;;
13347;SDS011;6743;49.934;9.138;2022-10-16T12:09:20;1.00;;;1.00;;
13347;SDS011;6743;49.934;9.138;2022-10-16T12:11:48;0.93;;;0.93;;
13347;SDS011;6743;49.934;9.138;2022-10-16T12:14:20;0.70;;;0.70;;
13347;SDS011;6743;49.934;9.138;2022-10-16T12:16:59;0.70;;;0.70;;
13347;SDS011;6743;49.934;9.138;2022-10-16T12:19:26;0.60;;;0.60;;
13347;SDS011;6743;49.934;9.138;2022-10-16T12:21:55;0.60;;;0.60;;
13347;SDS011;6743;49.934;9.138;2022-10-16T12:24:29;1.00;;;1.00;;
13347;SDS011;6743;49.934;9.138;2022-10-16T12:27:01;0.70;;;0.70;;
13347;SDS011;6743;49.934;9.138;2022-10-16T12:29:31;0.62;;;0.62;;
13347;SDS011;6743;49.934;9.138;2022-10-16T12:32:00;0.80;;;0.80;;
13347;SDS011;6743;49.934;9.138;2022-10-16T12:34:29;1.02;;;1.00;;
13347;SDS011;6743;49.934;9.138;2022-10-16T12:37:08;0.77;;;0.77;;
13347;SDS011;6743;49.934;9.138;2022-10-16T12:39:40;0.85;;;0.85;;
13347;SDS011;6743;49.934;9.138;2022-10-16T12:42:19;0.57;;;0.57;;
13347;SDS011;6743;49.934;9.138;2022-10-16T12:44:48;0.40;;;0.40;;
13347;SDS011;6743;49.934;9.138;2022-10-16T12:47:22;0.80;;;0.80;;
13347;SDS011;6743;49.934;9.138;2022-10-16T12:49:50;0.57;;;0.57;;
13347;SDS011;6743;49.934;9.138;2022-10-16T12:52:24;0.80;;;0.80;;
13347;SDS011;6743;49.934;9.138;2022-10-16T12:54:55;0.55;;;0.47;;
13347;SDS011;6743;49.934;9.138;2022-10-16T12:57:36;0.60;;;0.60;;
13347;SDS011;6743;49.934;9.138;2022-10-16T13:00:18;0.57;;;0.57;;
13347;SDS011;6743;49.934;9.138;2022-10-16T13:03:20;0.70;;;0.70;;
13347;SDS011;6743;49.934;9.138;2022-10-16T13:06:00;0.93;;;0.93;;
13347;SDS011;6743;49.934;9.138;2022-10-16T13:08:38;0.57;;;0.57;;
13347;SDS011;6743;49.934;9.138;2022-10-16T13:11:22;0.60;;;0.60;;
13347;SDS011;6743;49.934;9.138;2022-10-16T13:14:16;0.62;;;0.62;;
13347;SDS011;6743;49.934;9.138;2022-10-16T13:16:59;0.60;;;0.60;;
13347;SDS011;6743;49.934;9.138;2022-10-16T13:19:33;0.68;;;0.68;;
13347;SDS011;6743;49.934;9.138;2022-10-16T13:22:11;0.60;;;0.60;;
13347;SDS011;6743;49.934;9.138;2022-10-16T13:24:48;0.50;;;0.50;;
13347;SDS011;6743;49.934;9.138;2022-10-16T13:27:29;0.68;;;0.68;;
13347;SDS011;6743;49.934;9.138;2022-10-16T13:30:09;0.62;;;0.62;;
13347;SDS011;6743;49.934;9.138;2022-10-16T13:32:40;0.47;;;0.47;;
13347;SDS011;6743;49.934;9.138;2022-10-16T13:35:21;0.73;;;0.73;;
13347;SDS011;6743;49.934;9.138;2022-10-16T13:37:49;2.17;;;0.95;;
13347;SDS011;6743;49.934;9.138;2022-10-16T13:40:20;0.50;;;0.50;;
13347;SDS011;6743;49.934;9.138;2022-10-16T13:42:47;0.98;;;0.93;;
13347;SDS011;6743;49.934;9.138;2022-10-16T13:45:17;0.68;;;0.68;;
13347;SDS011;6743;49.934;9.138;2022-10-16T13:47:44;0.80;;;0.80;;
13347;SDS011;6743;49.934;9.138;2022-10-16T13:50:11;0.77;;;0.77;;
13347;SDS011;6743;49.934;9.138;2022-10-16T13:52:50;1.23;;;1.12;;
13347;SDS011;6743;49.934;9.138;2022-10-16T13:55:36;0.70;;;0.70;;
13347;SDS011;6743;49.934;9.138;2022-10-16T13:58:05;0.70;;;0.70;;
13347;SDS011;6743;49.934;9.138;2022-10-16T14:00:33;0.80;;;0.80;;
13347;SDS011;6743;49.934;9.138;2022-10-16T14:03:02;1.80;;;1.00;;
13347;SDS011;6743;49.934;9.138;2022-10-16T14:05:30;0.80;;;0.80;;
13347;SDS011;6743;49.934;9.138;2022-10-16T14:08:00;0.90;;;0.90;;
13347;SDS011;6743;49.934;9.138;2022-10-16T14:10:27;0.60;;;0.60;;
13347;SDS011;6743;49.934;9.138;2022-10-16T14:12:56;0.90;;;0.90;;
13347;SDS011;6743;49.934;9.138;2022-10-16T14:15:30;0.40;;;0.40;;
13347;SDS011;6743;49.934;9.138;2022-10-16T14:17:58;0.90;;;0.90;;
13347;SDS011;6743;49.934;9.138;2022-10-16T14:20:29;0.80;;;0.80;;
13347;SDS011;6743;49.934;9.138;2022-10-16T14:23:18;0.73;;;0.73;;
13347;SDS011;6743;49.934;9.138;2022-10-16T14:25:53;0.77;;;0.77;;
13347;SDS011;6743;49.934;9.138;2022-10-16T14:28:30;0.73;;;0.73;;
13347;SDS011;6743;49.934;9.138;2022-10-16T14:30:57;0.60;;;0.60;;
13347;SDS011;6743;49.934;9.138;2022-10-16T14:33:31;0.73;;;0.73;;
13347;SDS011;6743;49.934;9.138;2022-10-16T14:36:00;0.70;;;0.70;;
13347;SDS011;6743;49.934;9.138;2022-10-16T14:38:28;1.00;;;1.00;;
13347;SDS011;6743;49.934;9.138;2022-10-16T14:40:55;0.55;;;0.50;;
13347;SDS011;6743;49.934;9.138;2022-10-16T14:43:26;0.60;;;0.60;;
13347;SDS011;6743;49.934;9.138;2022-10-16T14:45:57;0.50;;;0.50;;
13347;SDS011;6743;49.934;9.138;2022-10-16T14:48:23;0.65;;;0.65;;
13347;SDS011;6743;49.934;9.138;2022-10-16T14:50:50;0.60;;;0.60;;
13347;SDS011;6743;49.934;9.138;2022-10-16T14:53:17;0.50;;;0.50;;
13347;SDS011;6743;49.934;9.138;2022-10-16T14:55:42;0.70;;;0.70;;
13347;SDS011;6743;49.934;9.138;2022-10-16T14:58:10;0.57;;;0.57;;
13347;SDS011;6743;49.934;9.138;2022-10-16T15:00:40;3.17;;;1.75;;
13347;SDS011;6743;49.934;9.138;2022-10-16T15:03:06;1.90;;;1.37;;
13347;SDS011;6743;49.934;9.138;2022-10-16T15:05:32;1.80;;;1.20;;
13347;SDS011;6743;49.934;9.138;2022-10-16T15:07:58;1.45;;;1.05;;
13347;SDS011;6743;49.934;9.138;2022-10-16T15:10:25;1.30;;;1.20;;
13347;SDS011;6743;49.934;9.138;2022-10-16T15:12:52;1.05;;;1.00;;
13347;SDS011;6743;49.934;9.138;2022-10-16T15:15:24;2.10;;;1.65;;
13347;SDS011;6743;49.934;9.138;2022-10-16T15:17:56;1.98;;;1.50;;
13347;SDS011;6743;49.934;9.138;2022-10-16T15:20:22;1.27;;;1.17;;
13347;SDS011;6743;49.934;9.138;2022-10-16T15:22:49;0.73;;;0.73;;